Terminal Aerodrome Forecast
Issued by NWS

Home | Current Version | Previous Version | Text Only | Print | Product List | Glossary On
Versions: 1 2 3 4 5 6 7 8 9 10 11 12 13 14 15 16 17 18 19 20 21 22 23
000
FTPA31 PHFO 291700
TAFJHM
TAF
PHJH 291740Z 2918/3018 14008KT P6SM FEW060
     FM292100 21012KT P6SM FEW025 SCT050
     FM300500 22007KT P6SM FEW025 SCT040
     FM301000 20005KT P6SM VCSH SCT025 BKN035
      AMD NOT SKED AFT 300400=

USA.gov is the U.S. government's official web portal to all federal, state and local government web resources and services.